createdAt,value
2019-02-03T00:00:51.145Z,998.30
2019-02-03T00:01:52.553Z,998.24
2019-02-03T00:02:53.952Z,998.32
2019-02-03T00:03:55.376Z,998.37
2019-02-03T00:04:56.805Z,998.36
2019-02-03T00:05:58.226Z,998.40
2019-02-03T00:07:03.299Z,998.39
2019-02-03T00:08:00.998Z,998.40
2019-02-03T00:09:02.434Z,998.46
2019-02-03T00:10:03.833Z,998.47
2019-02-03T00:11:05.254Z,998.42
2019-02-03T00:12:06.675Z,998.45
2019-02-03T00:13:08.095Z,998.41
2019-02-03T00:14:09.506Z,998.45
2019-02-03T00:15:10.897Z,998.46
2019-02-03T00:16:12.319Z,998.49
2019-02-03T00:17:13.869Z,998.45
2019-02-03T00:18:15.137Z,998.45
2019-02-03T00:19:16.562Z,998.47
2019-02-03T00:20:17.985Z,998.44
2019-02-03T00:21:19.413Z,998.46
2019-02-03T00:22:20.832Z,998.46
2019-02-03T00:23:22.251Z,998.45
2019-02-03T00:24:23.687Z,998.47
2019-02-03T00:25:25.230Z,998.49
2019-02-03T00:26:26.667Z,998.45
2019-02-03T00:27:28.027Z,998.48
2019-02-03T00:28:29.431Z,998.48
2019-02-03T00:29:30.827Z,998.51
2019-02-03T00:30:32.239Z,998.53
2019-02-03T00:31:33.800Z,998.56
2019-02-03T00:32:35.013Z,998.49
2019-02-03T00:33:37.918Z,998.52
2019-02-03T00:34:39.262Z,998.53
2019-02-03T00:35:40.673Z,998.54
2019-02-03T00:36:42.059Z,998.53
2019-02-03T00:37:43.494Z,998.52
2019-02-03T00:38:44.866Z,998.53
2019-02-03T00:39:46.310Z,998.51
2019-02-03T00:40:47.757Z,998.51
2019-02-03T00:41:49.042Z,998.51
2019-02-03T00:42:50.394Z,998.52
2019-02-03T00:43:51.799Z,998.50
2019-02-03T00:44:53.192Z,998.51
2019-02-03T00:45:54.590Z,998.47
2019-02-03T00:46:55.986Z,998.47
2019-02-03T00:47:57.374Z,998.46
2019-02-03T00:48:58.766Z,998.43
2019-02-03T00:50:00.187Z,998.43
2019-02-03T00:51:01.562Z,998.46
2019-02-03T00:52:02.956Z,998.44
2019-02-03T00:53:04.305Z,998.47
2019-02-03T00:54:05.713Z,998.44
2019-02-03T00:55:07.113Z,998.41
2019-02-03T00:56:08.509Z,998.43
2019-02-03T00:57:09.915Z,998.42
2019-02-03T00:58:11.305Z,998.49
2019-02-03T00:59:12.685Z,998.48
2019-02-03T01:00:14.083Z,998.53
2019-02-03T01:01:15.487Z,998.56
2019-02-03T01:02:16.883Z,998.58
2019-02-03T01:03:18.233Z,998.57
2019-02-03T01:04:19.631Z,998.62
2019-02-03T01:05:21.086Z,998.64
2019-02-03T01:06:22.489Z,998.63
2019-02-03T01:07:27.695Z,998.66
2019-02-03T01:08:25.234Z,998.71
2019-02-03T01:09:26.638Z,998.70
2019-02-03T01:10:28.058Z,998.76
2019-02-03T01:11:29.422Z,998.79
2019-02-03T01:12:30.818Z,998.76
2019-02-03T01:13:32.342Z,998.77
2019-02-03T01:14:33.575Z,998.82
2019-02-03T01:15:34.970Z,998.84
2019-02-03T01:16:36.378Z,998.86
2019-02-03T01:17:37.773Z,998.92
2019-02-03T01:18:39.172Z,998.89
2019-02-03T01:19:40.561Z,998.95
2019-02-03T01:20:41.953Z,998.97
2019-02-03T01:21:43.357Z,998.98
2019-02-03T01:22:44.721Z,999.02
2019-02-03T01:23:46.114Z,999.04
2019-02-03T01:24:47.586Z,999.02
2019-02-03T01:25:48.861Z,999.03
2019-02-03T01:26:50.263Z,999.05
2019-02-03T01:27:51.649Z,999.08
2019-02-03T01:28:53.051Z,999.14
2019-02-03T01:29:54.447Z,999.17
2019-02-03T01:30:55.853Z,999.19
2019-02-03T01:31:57.252Z,999.18
2019-02-03T01:32:58.618Z,999.24
2019-02-03T01:34:00.006Z,999.24
2019-02-03T01:35:01.391Z,999.24
2019-02-03T01:36:02.801Z,999.26
2019-02-03T01:37:04.187Z,999.30
2019-02-03T01:38:05.588Z,999.23
2019-02-03T01:39:06.984Z,999.30
2019-02-03T01:40:08.374Z,999.28
2019-02-03T01:41:09.770Z,999.27
2019-02-03T01:42:11.197Z,999.28
2019-02-03T01:43:12.642Z,999.32
2019-02-03T01:44:14.032Z,999.33
2019-02-03T01:45:15.422Z,999.28
2019-02-03T01:46:16.810Z,999.32
2019-02-03T01:47:18.213Z,999.31
2019-02-03T01:48:19.608Z,999.32
2019-02-03T01:49:21.007Z,999.33
2019-02-03T01:50:22.394Z,999.36
2019-02-03T01:51:23.795Z,999.34
2019-02-03T01:52:25.147Z,999.33
2019-02-03T01:53:26.567Z,999.31
2019-02-03T01:54:27.969Z,999.31
2019-02-03T01:55:29.361Z,999.30
2019-02-03T01:56:30.749Z,999.30
2019-02-03T01:57:32.150Z,999.28
2019-02-03T01:58:33.545Z,999.27
2019-02-03T01:59:34.962Z,999.35
2019-02-03T02:00:36.342Z,999.33
2019-02-03T02:01:37.733Z,999.30
2019-02-03T02:02:39.088Z,999.35
2019-02-03T02:03:40.484Z,999.40
2019-02-03T02:04:41.882Z,999.37
2019-02-03T02:05:43.273Z,999.40
2019-02-03T02:06:44.668Z,999.41
2019-02-03T02:07:51.688Z,999.39
2019-02-03T02:08:47.425Z,999.41
2019-02-03T02:09:48.804Z,999.40
2019-02-03T02:10:50.200Z,999.43
2019-02-03T02:11:51.593Z,999.48
2019-02-03T02:12:52.957Z,999.47
2019-02-03T02:13:54.346Z,999.48
2019-02-03T02:14:55.738Z,999.48
2019-02-03T02:15:57.140Z,999.45
2019-02-03T02:16:58.548Z,999.43
2019-02-03T02:17:59.992Z,999.42
2019-02-03T02:19:01.356Z,999.41
2019-02-03T02:20:02.749Z,999.44
2019-02-03T02:21:04.139Z,999.47
2019-02-03T02:22:05.514Z,999.51
2019-02-03T02:23:06.900Z,999.54
2019-02-03T02:24:08.297Z,999.55
2019-02-03T02:25:09.695Z,999.54
2019-02-03T02:26:11.085Z,999.59
2019-02-03T02:27:12.453Z,999.59
2019-02-03T02:28:13.869Z,999.56
2019-02-03T02:29:15.268Z,999.61
2019-02-03T02:30:16.665Z,999.61
2019-02-03T02:31:18.054Z,999.60
2019-02-03T02:32:19.416Z,999.62
2019-02-03T02:33:20.809Z,999.63
2019-02-03T02:34:22.171Z,999.63
2019-02-03T02:35:23.564Z,999.67
2019-02-03T02:36:25.106Z,999.65
2019-02-03T02:37:26.319Z,999.66
2019-02-03T02:38:27.703Z,999.70
2019-02-03T02:39:29.097Z,999.69
2019-02-03T02:40:30.495Z,999.75
2019-02-03T02:41:31.853Z,999.73
2019-02-03T02:42:33.248Z,999.74
2019-02-03T02:43:34.648Z,999.79
2019-02-03T02:44:36.040Z,999.74
2019-02-03T02:45:37.454Z,999.71
2019-02-03T02:46:38.846Z,999.71
2019-02-03T02:47:40.936Z,999.67
2019-02-03T02:48:42.319Z,999.67
2019-02-03T02:49:43.719Z,999.68
2019-02-03T02:50:45.124Z,999.75
2019-02-03T02:51:46.461Z,999.76
2019-02-03T02:52:47.845Z,999.83
2019-02-03T02:53:49.246Z,999.83
2019-02-03T02:54:50.648Z,999.80
2019-02-03T02:55:52.166Z,999.86
2019-02-03T02:56:53.395Z,999.85
2019-02-03T02:57:54.785Z,999.88
2019-02-03T02:58:56.181Z,999.89
2019-02-03T02:59:57.581Z,999.90
2019-02-03T03:00:58.937Z,999.95
2019-02-03T03:02:00.326Z,999.93
2019-02-03T03:03:01.725Z,999.92
2019-02-03T03:04:03.118Z,999.98
2019-02-03T03:05:04.507Z,999.96
2019-02-03T03:06:05.910Z,999.98
2019-02-03T03:07:07.297Z,999.97
2019-02-03T03:08:18.470Z,999.98
2019-02-03T03:09:10.043Z,1000.02
2019-02-03T03:10:11.453Z,1000.07
2019-02-03T03:11:12.850Z,1000.05
2019-02-03T03:12:14.256Z,1000.09
2019-02-03T03:13:15.650Z,1000.10
2019-02-03T03:14:17.054Z,1000.13
2019-02-03T03:15:18.450Z,1000.16
2019-02-03T03:16:19.853Z,1000.18
2019-02-03T03:17:21.254Z,1000.24
2019-02-03T03:18:22.656Z,1000.19
2019-02-03T03:19:24.046Z,1000.26
2019-02-03T03:20:25.447Z,1000.25
2019-02-03T03:21:26.797Z,1000.28
2019-02-03T03:22:28.195Z,1000.25
2019-02-03T03:23:29.589Z,1000.31
2019-02-03T03:24:30.991Z,1000.30
2019-02-03T03:25:32.396Z,1000.24
2019-02-03T03:26:33.801Z,1000.22
2019-02-03T03:27:35.212Z,1000.25
2019-02-03T03:28:36.609Z,1000.23
2019-02-03T03:29:38.001Z,1000.22
2019-02-03T03:30:39.414Z,1000.21
2019-02-03T03:31:40.812Z,1000.19
2019-02-03T03:32:42.135Z,1000.22
2019-02-03T03:33:43.538Z,1000.23
2019-02-03T03:34:44.938Z,1000.22
2019-02-03T03:35:46.352Z,1000.30
2019-02-03T03:36:47.748Z,1000.27
2019-02-03T03:37:49.154Z,1000.29
2019-02-03T03:38:50.554Z,1000.31
2019-02-03T03:39:51.951Z,1000.34
2019-02-03T03:40:53.304Z,1000.35
2019-02-03T03:41:54.696Z,1000.34
2019-02-03T03:42:56.129Z,1000.42
2019-02-03T03:43:57.489Z,1000.40
2019-02-03T03:44:58.893Z,1000.44
2019-02-03T03:46:00.285Z,1000.44
2019-02-03T03:47:01.677Z,1000.44
2019-02-03T03:48:03.069Z,1000.47
2019-02-03T03:49:04.470Z,1000.46
2019-02-03T03:50:05.863Z,1000.49
2019-02-03T03:51:07.217Z,1000.47
2019-02-03T03:52:08.622Z,1000.50
2019-02-03T03:53:10.020Z,1000.47
2019-02-03T03:54:11.414Z,1000.50
2019-02-03T03:55:12.810Z,1000.53
2019-02-03T03:56:14.201Z,1000.57
2019-02-03T03:57:15.598Z,1000.52
2019-02-03T03:58:16.988Z,1000.58
2019-02-03T03:59:18.383Z,1000.59
2019-02-03T04:00:19.774Z,1000.69
2019-02-03T04:01:21.152Z,1000.67
2019-02-03T04:02:22.552Z,1000.70
2019-02-03T04:03:23.943Z,1000.71
2019-02-03T04:04:25.348Z,1000.77
2019-02-03T04:05:26.756Z,1000.82
2019-02-03T04:06:28.154Z,1000.87
2019-02-03T04:07:29.548Z,1000.85
2019-02-03T04:08:30.899Z,1000.85
2019-02-03T04:09:32.300Z,1000.85
2019-02-03T04:10:33.652Z,1000.86
2019-02-03T04:11:35.048Z,1000.90
2019-02-03T04:12:36.434Z,1000.89
2019-02-03T04:13:38.738Z,1000.92
2019-02-03T04:14:40.134Z,1000.95
2019-02-03T04:15:41.535Z,1001.03
2019-02-03T04:16:42.923Z,1001.02
2019-02-03T04:17:44.323Z,1001.08
2019-02-03T04:18:45.709Z,1001.15
2019-02-03T04:19:47.100Z,1001.14
2019-02-03T04:20:48.463Z,1001.16
2019-02-03T04:21:49.865Z,1001.21
2019-02-03T04:22:51.266Z,1001.29
2019-02-03T04:23:52.666Z,1001.29
2019-02-03T04:24:54.086Z,1001.31
2019-02-03T04:25:55.474Z,1001.38
2019-02-03T04:26:56.873Z,1001.39
2019-02-03T04:27:58.272Z,1001.36
2019-02-03T04:28:59.664Z,1001.42
2019-02-03T04:30:01.060Z,1001.44
2019-02-03T04:31:02.424Z,1001.46
2019-02-03T04:32:03.825Z,1001.48
2019-02-03T04:33:05.218Z,1001.50
2019-02-03T04:34:06.610Z,1001.43
2019-02-03T04:35:08.000Z,1001.52
2019-02-03T04:36:09.395Z,1001.52
2019-02-03T04:37:10.802Z,1001.58
2019-02-03T04:38:12.211Z,1001.58
2019-02-03T04:39:13.602Z,1001.61
2019-02-03T04:40:14.994Z,1001.66
2019-02-03T04:41:16.387Z,1001.68
2019-02-03T04:42:17.789Z,1001.64
2019-02-03T04:43:19.199Z,1001.71
2019-02-03T04:44:20.601Z,1001.68
2019-02-03T04:45:22.875Z,1001.69
2019-02-03T04:46:23.364Z,1001.65
2019-02-03T04:47:24.777Z,1001.67
2019-02-03T04:48:26.189Z,1001.74
2019-02-03T04:49:27.577Z,1001.75
2019-02-03T04:50:28.941Z,1001.76
2019-02-03T04:51:30.341Z,1001.79
2019-02-03T04:52:31.726Z,1001.81
2019-02-03T04:53:33.135Z,1001.82
2019-02-03T04:54:34.520Z,1001.80
2019-02-03T04:55:35.921Z,1001.79
2019-02-03T04:56:37.313Z,1001.82
2019-02-03T04:57:38.715Z,1001.80
2019-02-03T04:58:40.110Z,1001.84
2019-02-03T04:59:41.506Z,1001.86
2019-02-03T05:00:42.868Z,1001.84
2019-02-03T05:01:44.273Z,1001.81
2019-02-03T05:02:45.667Z,1001.82
2019-02-03T05:03:47.068Z,1001.79
2019-02-03T05:04:48.467Z,1001.84
2019-02-03T05:05:49.866Z,1001.81
2019-02-03T05:06:51.253Z,1001.78
2019-02-03T05:07:52.652Z,1001.78
2019-02-03T05:08:54.051Z,1001.80
2019-02-03T05:09:55.454Z,1001.82
2019-02-03T05:10:56.837Z,1001.81
2019-02-03T05:11:58.231Z,1001.81
2019-02-03T05:12:59.628Z,1001.80
2019-02-03T05:14:01.016Z,1001.77
2019-02-03T05:15:02.415Z,1001.81
2019-02-03T05:16:03.815Z,1001.82
2019-02-03T05:17:05.205Z,1001.86
2019-02-03T05:18:06.597Z,1001.87
2019-02-03T05:19:07.992Z,1001.86
2019-02-03T05:20:09.363Z,1001.85
2019-02-03T05:21:10.750Z,1001.88
2019-02-03T05:22:12.154Z,1001.92
2019-02-03T05:23:13.541Z,1001.90
2019-02-03T05:24:15.008Z,1001.90
2019-02-03T05:25:16.292Z,1001.91
2019-02-03T05:26:17.690Z,1001.97
2019-02-03T05:27:19.095Z,1001.95
2019-02-03T05:28:20.490Z,1001.98
2019-02-03T05:29:21.878Z,1001.96
2019-02-03T05:30:23.233Z,1002.00
2019-02-03T05:31:24.630Z,1002.00
2019-02-03T05:32:26.031Z,1002.05
2019-02-03T05:33:27.418Z,1002.06
2019-02-03T05:34:28.831Z,1002.04
2019-02-03T05:35:30.223Z,1002.07
2019-02-03T05:36:31.623Z,1002.08
2019-02-03T05:37:33.017Z,1002.06
2019-02-03T05:38:34.405Z,1002.10
2019-02-03T05:39:35.772Z,1002.10
2019-02-03T05:40:37.192Z,1002.16
2019-02-03T05:41:38.560Z,1002.19
2019-02-03T05:42:39.951Z,1002.16
2019-02-03T05:43:41.357Z,1002.21
2019-02-03T05:44:42.767Z,1002.18
2019-02-03T05:45:44.152Z,1002.30
2019-02-03T05:46:45.557Z,1002.32
2019-02-03T05:47:49.864Z,1002.33
2019-02-03T05:48:48.327Z,1002.42
2019-02-03T05:49:49.686Z,1002.44
2019-02-03T05:50:51.076Z,1002.44
2019-02-03T05:51:52.472Z,1002.51
2019-02-03T05:52:53.874Z,1002.51
2019-02-03T05:53:55.276Z,1002.54
2019-02-03T05:54:56.676Z,1002.54
2019-02-03T05:55:58.071Z,1002.56
2019-02-03T05:56:59.463Z,1002.58
2019-02-03T05:58:00.854Z,1002.57
2019-02-03T05:59:02.222Z,1002.58
2019-02-03T06:00:03.600Z,1002.60
2019-02-03T06:01:05.005Z,1002.61
2019-02-03T06:02:06.402Z,1002.62
2019-02-03T06:03:07.797Z,1002.63
2019-02-03T06:04:09.195Z,1002.65
2019-02-03T06:05:10.583Z,1002.67
2019-02-03T06:06:11.999Z,1002.72
2019-02-03T06:07:13.403Z,1002.76
2019-02-03T06:08:14.819Z,1002.76
2019-02-03T06:09:16.164Z,1002.77
2019-02-03T06:10:17.585Z,1002.82
2019-02-03T06:11:18.978Z,1002.82
2019-02-03T06:12:20.368Z,1002.87
2019-02-03T06:13:21.764Z,1002.88
2019-02-03T06:14:23.148Z,1002.87
2019-02-03T06:15:24.549Z,1002.89
2019-02-03T06:16:25.959Z,1002.97
2019-02-03T06:17:27.343Z,1002.92
2019-02-03T06:18:28.742Z,1002.91
2019-02-03T06:19:30.100Z,1002.92
2019-02-03T06:20:31.496Z,1002.88
2019-02-03T06:21:32.912Z,1002.94
2019-02-03T06:22:34.313Z,1002.96
2019-02-03T06:23:35.704Z,1002.95
2019-02-03T06:24:37.116Z,1002.99
2019-02-03T06:25:38.516Z,1003.00
2019-02-03T06:26:39.903Z,1003.00
2019-02-03T06:27:41.296Z,1003.03
2019-02-03T06:28:42.659Z,1003.03
2019-02-03T06:29:44.066Z,1003.05
2019-02-03T06:30:45.463Z,1003.03
2019-02-03T06:31:46.857Z,1003.05
2019-02-03T06:32:48.265Z,1003.05
2019-02-03T06:33:49.670Z,1003.04
2019-02-03T06:34:51.068Z,1003.04
2019-02-03T06:35:52.460Z,1003.07
2019-02-03T06:36:53.850Z,1003.07
2019-02-03T06:37:55.243Z,1003.12
2019-02-03T06:38:56.610Z,1003.10
2019-02-03T06:39:58.002Z,1003.09
2019-02-03T06:40:59.397Z,1003.12
2019-02-03T06:42:00.788Z,1003.10
2019-02-03T06:43:02.197Z,1003.09
2019-02-03T06:44:03.586Z,1003.06
2019-02-03T06:45:04.976Z,1003.09
2019-02-03T06:46:06.366Z,1003.11
2019-02-03T06:47:07.773Z,1003.16
2019-02-03T06:48:09.165Z,1003.12
2019-02-03T06:49:10.514Z,1003.13
2019-02-03T06:50:11.911Z,1003.12
2019-02-03T06:51:13.310Z,1003.18
2019-02-03T06:52:14.708Z,1003.14
2019-02-03T06:53:16.115Z,1003.18
2019-02-03T06:54:17.522Z,1003.18
2019-02-03T06:55:18.934Z,1003.22
2019-02-03T06:56:20.323Z,1003.22
2019-02-03T06:57:21.725Z,1003.22
2019-02-03T06:58:23.119Z,1003.23
2019-02-03T06:59:24.489Z,1003.24
2019-02-03T07:00:25.893Z,1003.25
2019-02-03T07:01:27.284Z,1003.27
2019-02-03T07:02:28.681Z,1003.25
2019-02-03T07:03:30.094Z,1003.27
2019-02-03T07:04:31.620Z,1003.29
2019-02-03T07:05:32.853Z,1003.32
2019-02-03T07:06:34.270Z,1003.34
2019-02-03T07:07:35.659Z,1003.31
2019-02-03T07:08:37.047Z,1003.32
2019-02-03T07:09:38.441Z,1003.33
2019-02-03T07:10:39.844Z,1003.33
2019-02-03T07:11:41.251Z,1003.37
2019-02-03T07:12:42.658Z,1003.39
2019-02-03T07:13:44.053Z,1003.34
2019-02-03T07:14:45.452Z,1003.36
2019-02-03T07:15:46.844Z,1003.39
2019-02-03T07:16:48.243Z,1003.39
2019-02-03T07:17:49.642Z,1003.40
2019-02-03T07:18:51.005Z,1003.39
2019-02-03T07:19:52.413Z,1003.42
2019-02-03T07:20:53.771Z,1003.47
2019-02-03T07:21:55.172Z,1003.49
2019-02-03T07:22:56.571Z,1003.52
2019-02-03T07:23:57.985Z,1003.58
2019-02-03T07:24:59.383Z,1003.63
2019-02-03T07:26:00.792Z,1003.62
2019-02-03T07:27:02.191Z,1003.66
2019-02-03T07:28:03.553Z,1003.70
2019-02-03T07:29:04.959Z,1003.71
2019-02-03T07:30:06.352Z,1003.75
2019-02-03T07:31:07.763Z,1003.78
2019-02-03T07:32:09.161Z,1003.81
2019-02-03T07:33:10.560Z,1003.88
2019-02-03T07:34:11.953Z,1003.88
2019-02-03T07:35:13.350Z,1003.95
2019-02-03T07:36:14.755Z,1004.04
2019-02-03T07:37:16.146Z,1004.01
2019-02-03T07:38:17.500Z,1004.08
2019-02-03T07:39:18.895Z,1004.07
2019-02-03T07:40:20.294Z,1004.12
2019-02-03T07:41:21.695Z,1004.16
2019-02-03T07:42:23.092Z,1004.15
2019-02-03T07:43:24.484Z,1004.17
2019-02-03T07:44:25.894Z,1004.16
2019-02-03T07:45:27.303Z,1004.18
2019-02-03T07:46:28.696Z,1004.18
2019-02-03T07:47:30.092Z,1004.22
2019-02-03T07:48:31.565Z,1004.25
2019-02-03T07:49:32.815Z,1004.26
2019-02-03T07:50:34.215Z,1004.30
2019-02-03T07:51:35.640Z,1004.29
2019-02-03T07:52:37.043Z,1004.32
2019-02-03T07:53:38.463Z,1004.31
2019-02-03T07:54:39.863Z,1004.32
2019-02-03T07:55:41.258Z,1004.36
2019-02-03T07:56:42.724Z,1004.36
2019-02-03T07:57:44.060Z,1004.35
2019-02-03T07:58:45.471Z,1004.40
2019-02-03T07:59:46.873Z,1004.39
2019-02-03T08:00:48.281Z,1004.41
2019-02-03T08:01:49.722Z,1004.44
2019-02-03T08:02:51.084Z,1004.45
2019-02-03T08:03:52.481Z,1004.47
2019-02-03T08:04:53.883Z,1004.49
2019-02-03T08:05:55.294Z,1004.50
2019-02-03T08:06:56.700Z,1004.49
2019-02-03T08:07:58.102Z,1004.49
2019-02-03T08:08:59.514Z,1004.56
2019-02-03T08:10:00.910Z,1004.57
2019-02-03T08:11:04.627Z,1004.62
2019-02-03T08:12:03.673Z,1004.63
2019-02-03T08:13:05.075Z,1004.63
2019-02-03T08:14:06.466Z,1004.70
2019-02-03T08:15:07.860Z,1004.70
2019-02-03T08:16:09.262Z,1004.70
2019-02-03T08:17:10.623Z,1004.75
2019-02-03T08:18:12.028Z,1004.81
2019-02-03T08:19:13.432Z,1004.85
2019-02-03T08:20:14.838Z,1004.82
2019-02-03T08:21:16.239Z,1004.89
2019-02-03T08:22:17.637Z,1004.93
2019-02-03T08:23:19.030Z,1004.94
2019-02-03T08:24:20.428Z,1004.95
2019-02-03T08:25:21.828Z,1004.96
2019-02-03T08:26:23.235Z,1005.01
2019-02-03T08:27:24.588Z,1005.00
2019-02-03T08:28:25.974Z,1005.02
2019-02-03T08:29:27.390Z,1005.04
2019-02-03T08:30:28.798Z,1005.03
2019-02-03T08:31:30.202Z,1005.03
2019-02-03T08:32:31.594Z,1005.05
2019-02-03T08:33:32.996Z,1005.03
2019-02-03T08:34:34.406Z,1005.01
2019-02-03T08:35:35.802Z,1005.03
2019-02-03T08:36:37.160Z,1005.04
2019-02-03T08:37:38.560Z,1005.08
2019-02-03T08:38:39.966Z,1005.10
2019-02-03T08:39:41.408Z,1005.05
2019-02-03T08:40:42.806Z,1005.10
2019-02-03T08:41:44.206Z,1005.07
2019-02-03T08:42:45.609Z,1005.10
2019-02-03T08:43:47.022Z,1005.07
2019-02-03T08:44:48.412Z,1005.10
2019-02-03T08:45:49.776Z,1005.12
2019-02-03T08:46:51.191Z,1005.12
2019-02-03T08:47:52.589Z,1005.13
2019-02-03T08:48:53.993Z,1005.11
2019-02-03T08:49:55.399Z,1005.09
2019-02-03T08:50:56.801Z,1005.05
2019-02-03T08:51:58.222Z,1005.09
2019-02-03T08:52:59.621Z,1005.11
2019-02-03T08:54:01.017Z,1005.08
2019-02-03T08:55:02.426Z,1005.08
2019-02-03T08:56:03.782Z,1005.07
2019-02-03T08:57:05.180Z,1005.12
2019-02-03T08:58:06.594Z,1005.10
2019-02-03T08:59:08.015Z,1005.06
2019-02-03T09:00:09.414Z,1005.09
2019-02-03T09:01:10.814Z,1005.11
2019-02-03T09:02:12.207Z,1005.14
2019-02-03T09:03:13.624Z,1005.09
2019-02-03T09:04:15.019Z,1005.11
2019-02-03T09:05:16.416Z,1005.10
2019-02-03T09:06:17.796Z,1005.14
2019-02-03T09:07:19.185Z,1005.16
2019-02-03T09:08:20.580Z,1005.10
2019-02-03T09:09:21.968Z,1005.09
2019-02-03T09:10:23.384Z,1005.13
2019-02-03T09:11:24.777Z,1005.09
2019-02-03T09:12:26.180Z,1005.15
2019-02-03T09:13:27.577Z,1005.12
2019-02-03T09:14:28.982Z,1005.07
2019-02-03T09:15:30.343Z,1005.09
2019-02-03T09:16:31.745Z,1005.10
2019-02-03T09:17:33.157Z,1005.08
2019-02-03T09:18:35.110Z,1005.08
2019-02-03T09:19:35.969Z,1005.14
2019-02-03T09:20:37.378Z,1005.13
2019-02-03T09:21:38.776Z,1005.08
2019-02-03T09:22:40.219Z,1005.12
2019-02-03T09:23:41.599Z,1005.16
2019-02-03T09:24:42.995Z,1005.19
2019-02-03T09:25:44.494Z,1005.16
2019-02-03T09:26:45.903Z,1005.20
2019-02-03T09:27:47.313Z,1005.19
2019-02-03T09:28:48.809Z,1005.17
2019-02-03T09:29:50.080Z,1005.16
2019-02-03T09:30:51.524Z,1005.16
2019-02-03T09:31:52.933Z,1005.12
2019-02-03T09:32:54.332Z,1005.15
2019-02-03T09:33:55.739Z,1005.17
2019-02-03T09:34:57.144Z,1005.14
2019-02-03T09:35:58.549Z,1005.19
2019-02-03T09:36:59.958Z,1005.18
2019-02-03T09:38:01.356Z,1005.16
2019-02-03T09:39:02.760Z,1005.17
2019-02-03T09:40:04.181Z,1005.22
2019-02-03T09:41:05.576Z,1005.25
2019-02-03T09:42:07.050Z,1005.28
2019-02-03T09:43:08.454Z,1005.29
2019-02-03T09:44:09.852Z,1005.29
2019-02-03T09:45:11.208Z,1005.34
2019-02-03T09:46:12.614Z,1005.28
2019-02-03T09:47:14.032Z,1005.32
2019-02-03T09:48:15.425Z,1005.30
2019-02-03T09:49:16.830Z,1005.30
2019-02-03T09:50:18.239Z,1005.36
2019-02-03T09:51:19.639Z,1005.35
2019-02-03T09:52:21.051Z,1005.40
2019-02-03T09:53:22.465Z,1005.41
2019-02-03T09:54:23.819Z,1005.40
2019-02-03T09:55:25.219Z,1005.47
2019-02-03T09:56:26.639Z,1005.50
2019-02-03T09:57:28.044Z,1005.50
2019-02-03T09:58:29.553Z,1005.56
2019-02-03T09:59:30.848Z,1005.61
2019-02-03T10:00:32.254Z,1005.62
2019-02-03T10:01:33.664Z,1005.65
2019-02-03T10:02:35.061Z,1005.68
2019-02-03T10:03:36.499Z,1005.77
2019-02-03T10:04:37.876Z,1005.78
2019-02-03T10:05:39.286Z,1005.84
2019-02-03T10:06:40.701Z,1005.84
2019-02-03T10:07:42.104Z,1005.89
2019-02-03T10:08:43.518Z,1005.90
2019-02-03T10:09:44.951Z,1005.89
2019-02-03T10:10:46.382Z,1005.94
2019-02-03T10:11:47.788Z,1005.90
2019-02-03T10:12:49.198Z,1005.94
2019-02-03T10:13:50.567Z,1005.97
2019-02-03T10:14:52.006Z,1005.98
2019-02-03T10:15:53.454Z,1005.99
2019-02-03T10:16:54.861Z,1006.05
2019-02-03T10:17:56.304Z,1006.06
2019-02-03T10:18:57.767Z,1006.11
2019-02-03T10:19:59.194Z,1006.12
2019-02-03T10:21:00.621Z,1006.17
2019-02-03T10:22:02.050Z,1006.16
2019-02-03T10:23:03.475Z,1006.18
2019-02-03T10:24:04.850Z,1006.12
2019-02-03T10:25:06.253Z,1006.07
2019-02-03T10:26:08.367Z,1006.08
2019-02-03T10:27:09.773Z,1006.03
2019-02-03T10:28:11.211Z,1006.03
2019-02-03T10:29:12.621Z,1006.03
2019-02-03T10:30:14.016Z,1006.09
2019-02-03T10:31:15.430Z,1006.10
2019-02-03T10:32:16.854Z,1006.16
2019-02-03T10:33:18.291Z,1006.16
2019-02-03T10:34:19.676Z,1006.15
2019-02-03T10:35:23.453Z,1006.20
2019-02-03T10:36:22.606Z,1006.20
2019-02-03T10:37:23.836Z,1006.20
2019-02-03T10:38:25.265Z,1006.15
2019-02-03T10:39:26.678Z,1006.18
2019-02-03T10:40:28.096Z,1006.19
2019-02-03T10:41:29.507Z,1006.25
2019-02-03T10:42:30.907Z,1006.27
2019-02-03T10:43:32.270Z,1006.24
2019-02-03T10:44:33.699Z,1006.27
2019-02-03T10:45:35.110Z,1006.28
2019-02-03T10:46:36.525Z,1006.33
2019-02-03T10:47:37.947Z,1006.34
2019-02-03T10:48:39.349Z,1006.34
2019-02-03T10:49:40.747Z,1006.41
2019-02-03T10:50:42.150Z,1006.36
2019-02-03T10:51:43.571Z,1006.35
2019-02-03T10:52:44.961Z,1006.39
2019-02-03T10:53:46.361Z,1006.38
2019-02-03T10:54:47.937Z,1006.44
2019-02-03T10:55:49.335Z,1006.42
2019-02-03T10:56:50.741Z,1006.39
2019-02-03T10:57:52.165Z,1006.36
2019-02-03T10:58:53.573Z,1006.39
2019-02-03T10:59:54.987Z,1006.36
2019-02-03T11:00:56.398Z,1006.34
2019-02-03T11:01:57.798Z,1006.33
2019-02-03T11:02:59.157Z,1006.33
2019-02-03T11:04:00.574Z,1006.28
2019-02-03T11:05:01.973Z,1006.30
2019-02-03T11:06:03.373Z,1006.28
2019-02-03T11:07:04.772Z,1006.24
2019-02-03T11:08:06.186Z,1006.26
2019-02-03T11:09:07.587Z,1006.28
2019-02-03T11:10:08.981Z,1006.27
2019-02-03T11:11:10.386Z,1006.25
2019-02-03T11:12:11.748Z,1006.29
2019-02-03T11:13:13.153Z,1006.27
2019-02-03T11:14:14.583Z,1006.24
2019-02-03T11:15:15.981Z,1006.32
2019-02-03T11:16:17.514Z,1006.27
2019-02-03T11:17:18.937Z,1006.24
2019-02-03T11:18:20.349Z,1006.26
2019-02-03T11:19:21.771Z,1006.27
2019-02-03T11:20:23.175Z,1006.25
2019-02-03T11:21:24.557Z,1006.27
2019-02-03T11:22:25.951Z,1006.25
2019-02-03T11:23:27.370Z,1006.35
2019-02-03T11:24:28.791Z,1006.30
2019-02-03T11:25:30.209Z,1006.32
2019-02-03T11:26:31.628Z,1006.29
2019-02-03T11:27:33.040Z,1006.29
2019-02-03T11:28:34.449Z,1006.34
2019-02-03T11:29:35.863Z,1006.20
2019-02-03T11:30:37.241Z,1006.28
2019-02-03T11:31:38.645Z,1006.22
2019-02-03T11:32:40.020Z,1006.20
2019-02-03T11:33:41.431Z,1006.19
2019-02-03T11:34:42.842Z,1006.23
2019-02-03T11:35:44.241Z,1006.30
2019-02-03T11:36:45.660Z,1006.36
2019-02-03T11:37:47.064Z,1006.35
2019-02-03T11:38:48.478Z,1006.35
2019-02-03T11:39:49.936Z,1006.39
2019-02-03T11:40:51.348Z,1006.44
2019-02-03T11:41:52.742Z,1006.46
2019-02-03T11:42:54.160Z,1006.47
2019-02-03T11:43:55.535Z,1006.42
2019-02-03T11:44:57.005Z,1006.49
2019-02-03T11:45:58.413Z,1006.42
2019-02-03T11:46:59.825Z,1006.36
2019-02-03T11:48:01.265Z,1006.44
2019-02-03T11:49:02.629Z,1006.39
2019-02-03T11:50:04.042Z,1006.41
2019-02-03T11:51:05.486Z,1006.43
2019-02-03T11:52:06.895Z,1006.51
2019-02-03T11:53:08.316Z,1006.49
2019-02-03T11:54:09.737Z,1006.53
2019-02-03T11:55:11.213Z,1006.56
2019-02-03T11:56:12.618Z,1006.57
2019-02-03T11:57:14.029Z,1006.60
2019-02-03T11:58:15.402Z,1006.63
2019-02-03T11:59:16.890Z,1006.62
2019-02-03T12:00:18.253Z,1006.68
2019-02-03T12:01:19.667Z,1006.65
2019-02-03T12:02:21.066Z,1006.66
2019-02-03T12:03:23.329Z,1006.68
2019-02-03T12:04:24.734Z,1006.69
2019-02-03T12:05:26.137Z,1006.69
2019-02-03T12:06:27.547Z,1006.71
2019-02-03T12:07:28.968Z,1006.71
2019-02-03T12:08:30.368Z,1006.69
2019-02-03T12:09:31.769Z,1006.70
2019-02-03T12:10:33.180Z,1006.72
2019-02-03T12:11:34.720Z,1006.72
2019-02-03T12:12:35.947Z,1006.72
2019-02-03T12:13:37.358Z,1006.72
2019-02-03T12:14:38.775Z,1006.77
2019-02-03T12:15:40.172Z,1006.76
2019-02-03T12:16:41.569Z,1006.75
2019-02-03T12:17:42.974Z,1006.75
2019-02-03T12:18:44.347Z,1006.73
2019-02-03T12:19:45.763Z,1006.73
2019-02-03T12:20:47.159Z,1006.72
2019-02-03T12:21:48.590Z,1006.73
2019-02-03T12:22:50.015Z,1006.70
2019-02-03T12:23:51.675Z,1006.74
2019-02-03T12:24:53.085Z,1006.75
2019-02-03T12:25:54.489Z,1006.79
2019-02-03T12:26:55.902Z,1006.78
2019-02-03T12:27:57.305Z,1006.82
2019-02-03T12:28:58.673Z,1006.87